Time;durP1;ratioP1;P1;durP2;ratioP2;P2;SDS_P1;SDS_P2;PMS_P1;PMS_P2;Temp;Humidity;BMP_temperature;BMP_pressure;BME280_temperature;BME280_humidity;BME280_pressure;Samples;Min_cycle;Max_cycle;Signal;HPM_P1;HPM_P2
2022/12/17 13:06:52;;;;;;;96.83;39.83;;;1.60;99.90;;;;;;5089816;28;20287;-68
2022/12/17 13:09:25;;;;;;;88.97;35.40;;;1.70;99.90;;;;;;5088559;28;20584;-69
2022/12/17 13:12:01;;;;;;;104.60;42.57;;;1.80;99.90;;;;;;5089325;28;20209;-68
2022/12/17 13:14:32;;;;;;;93.60;40.63;;;1.80;99.90;;;;;;5086222;28;20288;-68
2022/12/17 13:17:05;;;;;;;96.77;41.67;;;1.80;99.90;;;;;;5084739;28;20308;-68
2022/12/17 13:19:40;;;;;;;90.57;39.20;;;1.80;99.90;;;;;;5084163;28;20240;-68
2022/12/17 13:22:13;;;;;;;95.27;40.17;;;1.80;99.90;;;;;;5086746;28;20207;-67
2022/12/17 13:24:52;;;;;;;89.20;40.53;;;1.80;99.90;;;;;;5087206;28;20289;-67
2022/12/17 13:27:35;;;;;;;98.67;40.20;;;1.70;99.90;;;;;;5088185;28;20229;-68
2022/12/17 13:30:17;;;;;;;91.83;40.10;;;1.80;99.90;;;;;;5089213;28;20268;-68
2022/12/17 13:33:08;;;;;;;88.33;37.37;;;1.80;99.90;;;;;;5091876;28;20206;-68
2022/12/17 13:36:04;;;;;;;97.40;42.27;;;1.70;99.90;;;;;;5089388;28;20296;-68
2022/12/17 13:38:43;;;;;;;88.87;38.30;;;1.60;99.90;;;;;;5091104;28;20215;-67
2022/12/17 13:41:13;;;;;;;93.17;37.87;;;1.60;99.90;;;;;;5090526;28;20286;-67
2022/12/17 13:44:17;;;;;;;103.33;44.47;;;1.50;99.90;;;;;;5091934;28;20239;-68
2022/12/17 13:46:46;;;;;;;74.67;35.47;;;1.50;99.90;;;;;;5082973;28;20296;-69
2022/12/17 13:49:19;;;;;;;99.27;41.03;;;1.40;99.90;;;;;;5090826;28;20562;-69
2022/12/17 13:51:46;;;;;;;110.50;47.63;;;1.40;99.90;;;;;;5092969;28;20227;-68
2022/12/17 13:54:16;;;;;;;102.57;41.07;;;1.30;99.90;;;;;;5091180;28;20665;-67
2022/12/17 13:56:44;;;;;;;108.73;46.33;;;1.30;99.90;;;;;;5093037;28;20255;-67
2022/12/17 13:59:19;;;;;;;99.07;40.83;;;1.30;99.90;;;;;;5092904;28;20563;-68
2022/12/17 14:01:49;;;;;;;86.13;35.43;;;1.30;99.90;;;;;;5091822;28;20407;-69
2022/12/17 14:04:23;;;;;;;101.67;44.73;;;1.30;99.90;;;;;;5092501;28;20696;-69
2022/12/17 14:06:51;;;;;;;105.80;45.33;;;1.30;99.90;;;;;;5091696;28;20200;-68
2022/12/17 14:09:21;;;;;;;103.50;45.33;;;1.20;99.90;;;;;;5092497;28;20220;-68
2022/12/17 14:14:34;;;;;;;126.13;55.23;;;1.10;99.90;;;;;;5091987;28;20223;-68
2022/12/17 14:17:01;;;;;;;130.00;58.20;;;1.10;99.90;;;;;;5092252;28;20402;-68
2022/12/17 14:19:28;;;;;;;96.57;38.40;;;1.10;99.90;;;;;;5091388;28;20403;-69
2022/12/17 14:21:55;;;;;;;102.00;45.17;;;1.10;99.90;;;;;;5089329;28;20214;-68
2022/12/17 14:24:27;;;;;;;106.67;43.20;;;1.10;99.90;;;;;;5092483;28;20208;-68
2022/12/17 14:26:59;;;;;;;96.60;38.80;;;1.10;99.90;;;;;;5088888;28;20222;-69
2022/12/17 14:29:30;;;;;;;105.23;40.13;;;1.00;99.90;;;;;;5092151;28;20742;-69
2022/12/17 14:32:20;;;;;;;95.73;37.47;;;1.00;99.90;;;;;;5088852;28;20686;-69
2022/12/17 14:34:46;;;;;;;106.53;37.07;;;1.00;99.90;;;;;;5089942;28;20223;-69
2022/12/17 14:37:20;;;;;;;92.37;37.47;;;1.00;99.90;;;;;;5091990;28;20204;-71
2022/12/17 14:39:48;;;;;;;101.13;37.93;;;1.00;99.90;;;;;;5089649;28;20303;-69
2022/12/17 14:42:24;;;;;;;111.33;39.37;;;0.90;99.90;;;;;;5092081;28;20204;-68
2022/12/17 14:45:06;;;;;;;103.53;39.27;;;0.90;99.90;;;;;;5090806;28;20643;-67
2022/12/17 14:47:35;;;;;;;103.30;37.33;;;0.80;99.90;;;;;;5090143;28;20261;-68
2022/12/17 14:50:10;;;;;;;104.07;41.73;;;0.80;99.90;;;;;;5091898;28;20231;-67
2022/12/17 14:52:39;;;;;;;105.13;47.17;;;0.80;99.90;;;;;;5091611;28;20287;-68
2022/12/17 14:55:21;;;;;;;108.33;39.57;;;0.70;99.90;;;;;;5091826;28;20669;-67
2022/12/17 14:57:49;;;;;;;101.70;38.40;;;0.70;99.90;;;;;;5088487;28;20231;-69
2022/12/17 15:00:17;;;;;;;106.93;39.63;;;0.70;99.90;;;;;;5091320;28;20237;-68
2022/12/17 15:02:53;;;;;;;98.23;38.43;;;0.60;99.90;;;;;;5089262;28;20250;-69
2022/12/17 15:05:20;;;;;;;103.10;37.60;;;0.70;99.90;;;;;;5087126;28;20840;-69
2022/12/17 15:07:47;;;;;;;104.90;38.37;;;0.60;99.90;;;;;;5088545;28;20209;-68
2022/12/17 15:10:19;;;;;;;103.50;41.10;;;0.60;99.90;;;;;;5090992;28;20706;-69
2022/12/17 15:12:47;;;;;;;99.20;37.13;;;0.60;99.90;;;;;;5086471;28;20702;-67
2022/12/17 15:15:15;;;;;;;104.97;37.20;;;0.50;99.90;;;;;;5089060;28;20326;-68
2022/12/17 15:17:42;;;;;;;101.57;38.00;;;0.50;99.90;;;;;;5085581;28;20632;-68
2022/12/17 15:20:16;;;;;;;141.87;61.37;;;0.50;99.90;;;;;;5088002;28;20290;-67
2022/12/17 15:22:44;;;;;;;125.07;57.07;;;0.40;99.90;;;;;;5086415;28;20203;-69
2022/12/17 15:25:16;;;;;;;109.47;44.00;;;0.40;99.90;;;;;;5086022;28;20208;-68
2022/12/17 15:27:43;;;;;;;108.80;43.33;;;0.40;99.90;;;;;;5085079;28;20732;-69
2022/12/17 15:30:16;;;;;;;108.10;36.77;;;0.40;99.90;;;;;;5084518;28;20686;-68
2022/12/17 15:32:43;;;;;;;88.03;36.00;;;0.40;99.90;;;;;;5086598;28;20200;-68
2022/12/17 15:35:12;;;;;;;102.70;39.10;;;0.30;99.90;;;;;;5087760;28;20663;-68
2022/12/17 15:37:39;;;;;;;99.40;36.43;;;0.30;99.90;;;;;;5089608;28;20206;-69
2022/12/17 15:40:06;;;;;;;96.13;35.00;;;0.20;99.90;;;;;;5088035;28;20589;-69
2022/12/17 15:45:18;;;;;;;121.07;48.88;;;0.10;99.90;;;;;;5087649;28;20484;-66
2022/12/17 15:47:45;;;;;;;107.03;41.17;;;0.30;99.90;;;;;;5090617;28;20592;-68
2022/12/17 15:50:12;;;;;;;105.53;39.57;;;0.30;99.90;;;;;;5087417;28;20273;-68
2022/12/17 15:52:38;;;;;;;93.83;36.60;;;0.20;99.90;;;;;;5089351;28;20623;-67
2022/12/17 15:55:06;;;;;;;103.30;36.53;;;0.20;99.90;;;;;;5085860;28;20205;-68
2022/12/17 15:57:32;;;;;;;100.63;40.27;;;0.10;99.90;;;;;;5087566;28;20255;-68
2022/12/17 15:59:59;;;;;;;99.17;37.27;;;0.10;99.90;;;;;;5089334;28;20192;-68
2022/12/17 16:02:26;;;;;;;96.80;37.90;;;0.10;99.90;;;;;;5089383;28;20235;-68
2022/12/17 16:04:53;;;;;;;108.10;40.90;;;0.10;99.90;;;;;;5087531;28;20269;-68
2022/12/17 16:07:19;;;;;;;115.97;38.80;;;0.00;99.90;;;;;;5087851;28;20295;-68
2022/12/17 16:09:46;;;;;;;96.87;36.83;;;0.00;99.90;;;;;;5085955;28;20259;-68
2022/12/17 16:12:13;;;;;;;103.10;36.97;;;0.00;99.90;;;;;;5088342;28;20211;-67
2022/12/17 16:14:39;;;;;;;98.23;36.07;;;0.00;99.90;;;;;;5088616;28;20207;-68
2022/12/17 16:17:06;;;;;;;97.33;37.40;;;0.00;99.90;;;;;;5083684;28;20597;-67
2022/12/17 16:19:33;;;;;;;105.57;37.83;;;0.00;99.90;;;;;;5089176;28;20210;-67
2022/12/17 16:22:00;;;;;;;105.97;36.80;;;0.00;99.90;;;;;;5083946;28;20270;-68
2022/12/17 16:24:26;;;;;;;96.53;36.53;;;0.00;99.90;;;;;;5090330;28;20200;-67
2022/12/17 16:26:56;;;;;;;90.73;33.60;;;-0.10;99.90;;;;;;5089782;28;20308;-68
2022/12/17 16:29:30;;;;;;;103.80;35.20;;;-0.10;99.90;;;;;;5086390;28;20280;-68
2022/12/17 16:31:57;;;;;;;97.83;32.97;;;-0.10;99.90;;;;;;5089673;28;20558;-68
2022/12/17 16:34:24;;;;;;;102.47;36.60;;;-0.10;99.90;;;;;;5089080;28;20202;-67
2022/12/17 16:36:52;;;;;;;112.30;41.23;;;-0.20;99.90;;;;;;5090040;28;20217;-67
2022/12/17 16:39:19;;;;;;;106.57;36.07;;;-0.20;99.90;;;;;;5089231;28;20658;-68
2022/12/17 16:41:46;;;;;;;106.07;37.93;;;-0.20;99.90;;;;;;5089840;28;20302;-67
2022/12/17 16:44:12;;;;;;;109.20;40.47;;;-0.20;99.90;;;;;;5088467;28;20678;-67
2022/12/17 16:46:41;;;;;;;124.47;48.13;;;-0.20;99.90;;;;;;5090560;28;20527;-67
2022/12/17 16:49:28;;;;;;;109.67;44.40;;;-0.20;99.90;;;;;;5089558;28;20192;-68
2022/12/17 16:51:55;;;;;;;100.20;38.20;;;-0.20;99.90;;;;;;5086147;28;20614;-67
2022/12/17 16:54:26;;;;;;;102.77;35.47;;;-0.20;99.90;;;;;;5071205;28;20652;-68
2022/12/17 16:56:54;;;;;;;100.57;35.20;;;-0.20;99.90;;;;;;5088003;28;20300;-67
2022/12/17 16:59:22;;;;;;;104.67;35.93;;;-0.20;99.90;;;;;;5089418;28;20282;-67
2022/12/17 17:01:50;;;;;;;95.40;36.10;;;-0.30;99.90;;;;;;5088623;28;20204;-68
2022/12/17 17:04:20;;;;;;;95.83;34.63;;;-0.30;99.90;;;;;;5089244;28;20199;-67
2022/12/17 17:06:52;;;;;;;97.40;40.10;;;-0.30;99.90;;;;;;5089885;28;20290;-68
2022/12/17 17:09:20;;;;;;;102.13;40.63;;;-0.30;99.90;;;;;;5093334;28;20281;-67
2022/12/17 17:11:48;;;;;;;111.10;45.13;;;-0.40;99.90;;;;;;5090873;28;20543;-67
2022/12/17 17:14:17;;;;;;;107.03;38.67;;;-0.40;99.90;;;;;;5093222;28;20207;-68
2022/12/17 17:16:44;;;;;;;95.57;37.73;;;-0.40;99.90;;;;;;5092594;28;20679;-67
2022/12/17 17:19:11;;;;;;;97.73;36.77;;;-0.40;99.90;;;;;;5092744;28;20709;-68
2022/12/17 17:21:40;;;;;;;107.20;37.60;;;-0.40;99.90;;;;;;5093854;28;20297;-68
2022/12/17 17:24:11;;;;;;;93.23;36.60;;;-0.40;99.90;;;;;;5091795;28;20606;-67
2022/12/17 17:26:46;;;;;;;97.43;37.70;;;-0.50;99.90;;;;;;5089952;28;20544;-67
2022/12/17 17:29:12;;;;;;;100.83;37.73;;;-0.40;99.90;;;;;;5093871;28;20278;-67
2022/12/17 17:31:40;;;;;;;108.47;40.07;;;-0.40;99.90;;;;;;5089819;28;20222;-67
2022/12/17 17:34:27;;;;;;;107.30;49.67;;;-0.50;99.90;;;;;;5092424;28;20250;-67
2022/12/17 17:36:54;;;;;;;100.10;43.80;;;-0.50;99.90;;;;;;5093631;28;20298;-68
2022/12/17 17:39:21;;;;;;;98.40;37.33;;;-0.50;99.90;;;;;;5092596;28;20246;-66
2022/12/17 17:41:47;;;;;;;98.27;37.43;;;-0.50;99.90;;;;;;5092355;28;20236;-67
2022/12/17 17:44:14;;;;;;;100.57;36.00;;;-0.50;99.90;;;;;;5092990;28;20217;-67
2022/12/17 17:46:41;;;;;;;105.73;36.80;;;-0.50;99.90;;;;;;5092752;28;20318;-67
2022/12/17 17:49:09;;;;;;;100.27;37.50;;;-0.50;99.90;;;;;;5090828;28;20520;-66
2022/12/17 17:51:40;;;;;;;94.70;36.50;;;-0.50;99.90;;;;;;5091538;28;20203;-68
2022/12/17 17:54:26;;;;;;;92.87;37.33;;;-0.50;99.90;;;;;;5091278;28;20196;-67
2022/12/17 17:56:53;;;;;;;96.50;37.90;;;-0.50;99.90;;;;;;5092629;28;20233;-68
2022/12/17 17:59:22;;;;;;;94.60;36.23;;;-0.60;99.90;;;;;;5091783;28;20192;-67
2022/12/17 18:01:58;;;;;;;95.27;36.87;;;-0.60;99.90;;;;;;5089257;28;20636;-68
2022/12/17 18:04:26;;;;;;;99.60;37.67;;;-0.60;99.90;;;;;;5090609;28;20211;-68
2022/12/17 18:06:52;;;;;;;94.60;36.67;;;-0.60;99.90;;;;;;5092523;28;20230;-67
2022/12/17 18:09:39;;;;;;;95.17;36.30;;;-0.60;99.90;;;;;;5092706;28;20203;-68
2022/12/17 18:14:52;;;;;;;94.67;37.03;;;-0.60;99.90;;;;;;5088492;28;20701;-68
2022/12/17 18:17:38;;;;;;;98.43;37.20;;;-0.60;99.90;;;;;;5091882;28;20221;-68
2022/12/17 18:20:05;;;;;;;97.60;38.80;;;-0.60;99.90;;;;;;5091571;28;20675;-68
2022/12/17 18:22:32;;;;;;;89.03;36.27;;;-0.60;99.90;;;;;;5091765;28;20285;-68
2022/12/17 18:24:59;;;;;;;87.93;35.53;;;-0.60;99.90;;;;;;5092824;28;20705;-68
2022/12/17 18:27:26;;;;;;;83.27;35.73;;;-0.70;99.90;;;;;;5092920;28;20263;-68
2022/12/17 18:29:53;;;;;;;92.47;35.43;;;-0.70;99.90;;;;;;5092953;28;20723;-68
2022/12/17 18:32:19;;;;;;;90.83;38.13;;;-0.80;99.90;;;;;;5092263;28;20322;-67
2022/12/17 18:34:46;;;;;;;120.80;48.47;;;-0.80;99.90;;;;;;5089099;28;20305;-67
2022/12/17 18:37:13;;;;;;;106.40;43.23;;;-0.80;99.90;;;;;;5092953;28;20203;-67
2022/12/17 18:39:40;;;;;;;104.13;39.40;;;-0.90;99.90;;;;;;5092595;28;20287;-67
2022/12/17 18:44:53;;;;;;;100.80;36.50;;;-0.90;99.90;;;;;;5089371;28;20221;-67
2022/12/17 18:47:20;;;;;;;98.73;38.07;;;-0.90;99.90;;;;;;5091057;28;20215;-68
2022/12/17 18:49:47;;;;;;;91.17;35.20;;;-0.90;99.90;;;;;;5092462;28;20235;-67
2022/12/17 18:52:14;;;;;;;89.10;34.20;;;-1.00;99.90;;;;;;5091525;28;20259;-67
2022/12/17 18:54:43;;;;;;;103.10;36.27;;;-0.90;99.90;;;;;;5090520;28;20722;-67
2022/12/17 18:57:10;;;;;;;87.83;35.07;;;-1.00;99.90;;;;;;5091687;28;20230;-67
2022/12/17 18:59:39;;;;;;;90.13;33.87;;;-1.00;99.90;;;;;;5090007;28;20652;-67
2022/12/17 19:02:10;;;;;;;93.23;35.23;;;-1.00;99.90;;;;;;5091902;28;20207;-68
2022/12/17 19:04:38;;;;;;;86.77;33.60;;;-1.00;99.90;;;;;;5090289;28;20236;-68
2022/12/17 19:07:05;;;;;;;85.87;33.90;;;-1.00;99.90;;;;;;5087941;28;20621;-68
2022/12/17 19:09:38;;;;;;;98.30;34.97;;;-1.00;99.90;;;;;;5090913;28;20222;-67
2022/12/17 19:12:07;;;;;;;91.83;35.27;;;-1.00;99.90;;;;;;5090914;28;20281;-68
2022/12/17 19:14:35;;;;;;;114.10;42.77;;;-1.00;99.90;;;;;;5091283;28;20199;-68
2022/12/17 19:17:02;;;;;;;100.43;37.73;;;-1.00;99.90;;;;;;5088251;28;20970;-68
2022/12/17 19:19:29;;;;;;;99.23;37.27;;;-0.90;99.90;;;;;;5087967;28;20285;-68
2022/12/17 19:21:59;;;;;;;106.70;40.13;;;-0.90;99.90;;;;;;5089893;28;20233;-68
2022/12/17 19:24:25;;;;;;;135.25;64.30;;;-0.90;99.90;;;;;;5089790;28;20940;-68
2022/12/17 19:26:53;;;;;;;110.33;41.67;;;-0.60;99.90;;;;;;5088557;28;20311;-68
2022/12/17 19:29:20;;;;;;;104.83;40.90;;;-0.60;99.90;;;;;;5089680;28;20188;-67
2022/12/17 19:31:47;;;;;;;92.80;35.27;;;-0.70;99.90;;;;;;5087802;28;20228;-69
2022/12/17 19:34:18;;;;;;;99.10;35.07;;;-0.80;99.90;;;;;;5085391;28;20208;-68
2022/12/17 19:36:46;;;;;;;86.73;34.93;;;-0.80;99.90;;;;;;5089113;28;20214;-67
2022/12/17 19:39:16;;;;;;;86.60;34.57;;;-0.80;99.90;;;;;;5087740;28;20192;-68
2022/12/17 19:41:43;;;;;;;93.27;35.20;;;-0.80;99.90;;;;;;5090238;28;20444;-68
2022/12/17 19:44:13;;;;;;;91.03;35.33;;;-0.80;99.90;;;;;;5088620;28;20212;-67
2022/12/17 19:46:40;;;;;;;90.37;33.27;;;-0.80;99.90;;;;;;5088654;28;20671;-68
2022/12/17 19:49:09;;;;;;;91.73;35.27;;;-0.80;99.90;;;;;;5089680;28;20294;-68
2022/12/17 19:51:38;;;;;;;101.23;34.93;;;-0.80;99.90;;;;;;5088222;28;20269;-68
2022/12/17 19:54:05;;;;;;;85.40;33.67;;;-0.80;99.90;;;;;;5088093;28;20636;-67
2022/12/17 19:56:35;;;;;;;99.37;35.43;;;-0.90;99.90;;;;;;5089810;28;20757;-68
2022/12/17 19:59:05;;;;;;;88.07;33.60;;;-0.90;99.90;;;;;;5089207;28;20668;-67
2022/12/17 20:01:35;;;;;;;84.10;32.37;;;-1.00;99.90;;;;;;5084906;28;20196;-67
2022/12/17 20:04:04;;;;;;;83.23;31.13;;;-1.00;99.90;;;;;;5089622;28;20198;-68
2022/12/17 20:06:33;;;;;;;80.33;32.30;;;-1.10;99.90;;;;;;5086809;28;20293;-67
2022/12/17 20:09:02;;;;;;;83.83;31.43;;;-1.10;99.90;;;;;;5087674;28;20215;-67
2022/12/17 20:11:32;;;;;;;87.13;31.27;;;-1.10;99.90;;;;;;5090163;28;20278;-67
2022/12/17 20:13:58;;;;;;;91.67;33.30;;;-1.10;99.90;;;;;;5087063;28;20665;-67
2022/12/17 20:16:26;;;;;;;85.57;31.40;;;-1.20;99.90;;;;;;5086618;28;20299;-68
2022/12/17 20:18:53;;;;;;;93.47;33.60;;;-1.20;99.90;;;;;;5088631;28;20618;-67
2022/12/17 20:21:20;;;;;;;91.17;35.73;;;-1.20;99.90;;;;;;5089224;28;20326;-67
2022/12/17 20:23:48;;;;;;;95.67;34.90;;;-1.20;99.90;;;;;;5090376;28;20708;-67
2022/12/17 20:26:15;;;;;;;81.27;31.27;;;-1.30;99.90;;;;;;5087100;28;20209;-67
2022/12/17 20:28:42;;;;;;;94.50;34.90;;;-1.20;99.90;;;;;;5088904;28;20204;-67
2022/12/17 20:31:10;;;;;;;88.47;35.30;;;-1.20;99.90;;;;;;5089522;28;20915;-67
2022/12/17 20:33:37;;;;;;;97.23;34.77;;;-1.20;99.90;;;;;;5088190;28;20250;-67
2022/12/17 20:36:05;;;;;;;101.70;36.70;;;-1.20;99.90;;;;;;5089373;28;20257;-69
2022/12/17 20:38:33;;;;;;;94.53;36.10;;;-1.20;99.90;;;;;;5089577;28;20232;-68
2022/12/17 20:41:00;;;;;;;88.57;33.37;;;-1.20;99.90;;;;;;5085847;28;20203;-67
2022/12/17 20:43:27;;;;;;;92.70;32.90;;;-1.30;99.90;;;;;;5088346;28;20263;-67
2022/12/17 20:45:54;;;;;;;94.57;34.53;;;-1.30;99.90;;;;;;5088325;28;20662;-68
2022/12/17 20:48:21;;;;;;;90.83;31.37;;;-1.30;99.90;;;;;;5090231;28;20195;-67
2022/12/17 20:50:49;;;;;;;89.73;32.57;;;-1.30;99.90;;;;;;5088807;28;20224;-67
2022/12/17 20:53:16;;;;;;;85.53;32.10;;;-1.30;99.90;;;;;;5088694;28;20654;-67
2022/12/17 20:55:42;;;;;;;82.70;31.63;;;-1.30;99.90;;;;;;5089300;28;20382;-68
2022/12/17 20:58:10;;;;;;;102.40;34.57;;;-1.30;99.90;;;;;;5089875;28;20224;-68
2022/12/17 21:00:37;;;;;;;100.40;34.27;;;-1.30;99.90;;;;;;5089059;28;20657;-68
2022/12/17 21:03:03;;;;;;;99.60;36.33;;;-1.40;99.90;;;;;;5088986;28;20288;-67
2022/12/17 21:05:34;;;;;;;102.70;34.93;;;-1.40;99.90;;;;;;5084918;28;20197;-68
2022/12/17 21:08:00;;;;;;;93.27;33.03;;;-1.40;99.90;;;;;;5089499;28;20206;-67
2022/12/17 21:10:27;;;;;;;110.57;36.33;;;-1.40;99.90;;;;;;5088555;28;20623;-68
2022/12/17 21:15:39;;;;;;;99.73;36.00;;;-1.40;99.90;;;;;;5086113;28;20272;-68
2022/12/17 21:18:06;;;;;;;105.83;36.30;;;-1.30;99.90;;;;;;5088442;28;20692;-67
2022/12/17 21:20:33;;;;;;;106.13;36.70;;;-1.30;99.90;;;;;;5085482;28;20202;-68
2022/12/17 21:22:59;;;;;;;102.30;34.20;;;-1.30;99.90;;;;;;5087518;28;20197;-67
2022/12/17 21:25:26;;;;;;;90.70;31.93;;;-1.30;99.90;;;;;;5086164;28;20725;-67
2022/12/17 21:27:53;;;;;;;90.13;31.23;;;-1.40;99.90;;;;;;5088794;28;20252;-67
2022/12/17 21:30:20;;;;;;;92.23;33.53;;;-1.40;99.90;;;;;;5088238;28;20308;-67
2022/12/17 21:32:46;;;;;;;92.33;32.37;;;-1.40;99.90;;;;;;5089194;28;20315;-68
2022/12/17 21:35:14;;;;;;;93.83;33.20;;;-1.40;99.90;;;;;;5089307;28;20305;-68
2022/12/17 21:37:42;;;;;;;87.97;32.00;;;-1.40;99.90;;;;;;5089384;28;20285;-68
2022/12/17 21:40:10;;;;;;;89.97;34.30;;;-1.50;99.90;;;;;;5087458;28;20230;-67
2022/12/17 21:45:23;;;;;;;92.07;31.70;;;-1.60;99.90;;;;;;5088080;28;20193;-68
2022/12/17 21:47:49;;;;;;;102.30;34.07;;;-1.70;99.90;;;;;;5089213;28;20199;-67
2022/12/17 21:50:16;;;;;;;108.07;36.43;;;-1.70;99.90;;;;;;5088489;28;20368;-67
2022/12/17 21:52:43;;;;;;;101.67;35.50;;;-1.70;99.90;;;;;;5088770;28;20265;-67
2022/12/17 21:55:10;;;;;;;107.63;34.93;;;-1.60;99.90;;;;;;5092329;28;20206;-67
2022/12/17 21:57:37;;;;;;;110.87;35.43;;;-1.60;99.90;;;;;;5093175;28;20343;-68
2022/12/17 22:00:05;;;;;;;113.77;35.97;;;-1.60;99.90;;;;;;5092945;28;20213;-68
2022/12/17 22:02:31;;;;;;;110.63;35.10;;;-1.60;99.90;;;;;;5091146;28;20643;-67
2022/12/17 22:04:59;;;;;;;111.97;37.43;;;-1.60;99.90;;;;;;5091910;28;20194;-68
2022/12/17 22:07:26;;;;;;;105.37;35.13;;;-1.50;99.90;;;;;;5092877;28;20234;-68
2022/12/17 22:10:01;;;;;;;102.47;33.97;;;-1.60;99.90;;;;;;5089127;28;20657;-68
2022/12/17 22:15:32;;;;;;;106.37;32.70;;;-1.60;99.90;;;;;;5091397;28;20308;-68
2022/12/17 22:18:09;;;;;;;103.57;33.40;;;-1.70;99.90;;;;;;5089824;28;20219;-66
2022/12/17 22:20:36;;;;;;;98.10;35.77;;;-1.70;99.90;;;;;;5092492;28;20288;-68
2022/12/17 22:23:04;;;;;;;115.93;36.47;;;-1.80;99.90;;;;;;5092311;28;20220;-68
2022/12/17 22:25:34;;;;;;;102.20;33.07;;;-1.80;99.90;;;;;;5090430;28;20218;-67
2022/12/17 22:28:01;;;;;;;107.67;34.17;;;-1.80;99.90;;;;;;5092050;28;20317;-68
2022/12/17 22:33:14;;;;;;;111.90;33.80;;;-1.70;99.90;;;;;;5089846;28;20569;-68
2022/12/17 22:36:01;;;;;;;107.80;32.90;;;-1.70;99.90;;;;;;5089752;28;20208;-68
2022/12/17 22:38:48;;;;;;;105.57;34.97;;;-1.70;99.90;;;;;;5090162;28;20561;-68
2022/12/17 22:44:40;;;;;;;111.03;34.70;;;-1.70;99.90;;;;;;5090017;28;20573;-69
2022/12/17 22:47:20;;;;;;;87.50;31.27;;;-1.70;99.90;;;;;;5090817;28;20625;-67
2022/12/17 22:49:47;;;;;;;93.10;31.23;;;-1.80;99.90;;;;;;5091097;28;20289;-68
2022/12/17 22:52:13;;;;;;;102.00;35.63;;;-1.80;99.90;;;;;;5091239;28;20223;-68
2022/12/17 22:54:43;;;;;;;94.90;32.13;;;-1.90;99.90;;;;;;5091044;28;20316;-68
2022/12/17 22:57:11;;;;;;;102.33;33.50;;;-2.00;99.90;;;;;;5089534;28;20309;-68
2022/12/17 22:59:57;;;;;;;101.27;31.47;;;-2.00;99.90;;;;;;5088567;28;20553;-67
2022/12/17 23:02:24;;;;;;;89.87;33.33;;;-2.10;99.90;;;;;;5091886;28;20209;-68
2022/12/17 23:04:51;;;;;;;113.63;35.20;;;-2.20;99.90;;;;;;5090751;28;20197;-67
2022/12/17 23:07:17;;;;;;;97.10;33.23;;;-2.20;99.90;;;;;;5090047;28;20223;-67
2022/12/17 23:09:44;;;;;;;106.73;33.53;;;-2.20;99.90;;;;;;5091547;28;20516;-68
2022/12/17 23:14:56;;;;;;;104.43;34.77;;;-2.20;99.90;;;;;;5087541;28;20576;-67
2022/12/17 23:17:23;;;;;;;121.73;36.70;;;-2.10;99.90;;;;;;5090471;28;20244;-67
2022/12/17 23:19:49;;;;;;;114.00;37.43;;;-2.10;99.90;;;;;;5090782;28;20435;-68
2022/12/17 23:22:16;;;;;;;122.57;37.03;;;-2.10;99.90;;;;;;5091164;28;20201;-67
2022/12/17 23:24:48;;;;;;;108.83;37.03;;;-2.10;99.90;;;;;;5090620;28;20213;-68
2022/12/17 23:27:14;;;;;;;113.07;35.83;;;-2.10;99.90;;;;;;5090846;28;20406;-68
2022/12/17 23:29:41;;;;;;;105.83;34.00;;;-2.10;99.90;;;;;;5090652;28;20201;-68
2022/12/17 23:32:11;;;;;;;102.47;35.57;;;-2.10;99.90;;;;;;5088433;28;20641;-68
2022/12/17 23:34:37;;;;;;;126.40;35.63;;;-2.10;99.90;;;;;;5091098;28;20398;-68
2022/12/17 23:37:04;;;;;;;110.57;36.83;;;-2.10;99.90;;;;;;5090181;28;20201;-68
2022/12/17 23:39:31;;;;;;;114.73;36.77;;;-2.10;99.90;;;;;;5090898;28;20204;-68
2022/12/17 23:41:58;;;;;;;112.70;36.07;;;-2.20;99.90;;;;;;5088934;28;20220;-68
2022/12/17 23:44:24;;;;;;;110.87;36.03;;;-2.20;99.90;;;;;;5090165;28;20727;-68
2022/12/17 23:46:51;;;;;;;115.37;37.93;;;-2.20;99.90;;;;;;5091188;28;20201;-68
2022/12/17 23:49:18;;;;;;;117.47;38.23;;;-2.20;99.90;;;;;;5090559;28;20733;-68
2022/12/17 23:51:45;;;;;;;113.07;36.90;;;-2.20;99.90;;;;;;5090410;28;20266;-68
2022/12/17 23:54:11;;;;;;;116.33;37.33;;;-2.20;99.90;;;;;;5090124;28;20288;-68
2022/12/17 23:56:38;;;;;;;110.13;37.40;;;-2.30;99.90;;;;;;5086559;28;20274;-68
2022/12/17 23:59:05;;;;;;;117.67;35.93;;;-2.30;99.90;;;;;;5090915;28;20253;-70
